sensor_id;sensor_type;location;lat;lon;timestamp;P1;durP1;ratioP1;P2;durP2;ratioP2
45077;SDS011;60508;42.622;25.416;2023-05-27T00:00:26;2.65;;;1.83;;
45077;SDS011;60508;42.622;25.416;2023-05-27T00:03:31;3.17;;;2.55;;
45077;SDS011;60508;42.622;25.416;2023-05-27T00:06:23;2.30;;;1.95;;
45077;SDS011;60508;42.622;25.416;2023-05-27T00:09:27;3.08;;;2.30;;
45077;SDS011;60508;42.622;25.416;2023-05-27T00:12:22;3.83;;;2.92;;
45077;SDS011;60508;42.622;25.416;2023-05-27T00:15:27;3.33;;;2.35;;
45077;SDS011;60508;42.622;25.416;2023-05-27T00:18:20;4.55;;;2.65;;
45077;SDS011;60508;42.622;25.416;2023-05-27T00:21:26;3.10;;;2.50;;
45077;SDS011;60508;42.622;25.416;2023-05-27T00:24:18;4.10;;;3.65;;
45077;SDS011;60508;42.622;25.416;2023-05-27T00:30:17;6.35;;;2.80;;
45077;SDS011;60508;42.622;25.416;2023-05-27T00:33:20;3.65;;;2.80;;
45077;SDS011;60508;42.622;25.416;2023-05-27T00:36:14;8.25;;;3.90;;
45077;SDS011;60508;42.622;25.416;2023-05-27T00:39:17;6.88;;;2.70;;
45077;SDS011;60508;42.622;25.416;2023-05-27T00:42:10;3.75;;;2.92;;
45077;SDS011;60508;42.622;25.416;2023-05-27T00:45:16;4.93;;;3.92;;
45077;SDS011;60508;42.622;25.416;2023-05-27T00:48:08;3.05;;;2.67;;
45077;SDS011;60508;42.622;25.416;2023-05-27T00:51:05;3.63;;;2.80;;
45077;SDS011;60508;42.622;25.416;2023-05-27T00:54:09;5.70;;;2.67;;
45077;SDS011;60508;42.622;25.416;2023-05-27T00:57:01;2.72;;;2.45;;
45077;SDS011;60508;42.622;25.416;2023-05-27T01:00:07;4.03;;;2.65;;
45077;SDS011;60508;42.622;25.416;2023-05-27T01:03:00;2.83;;;2.63;;
45077;SDS011;60508;42.622;25.416;2023-05-27T01:09:11;4.28;;;2.63;;
45077;SDS011;60508;42.622;25.416;2023-05-27T01:12:40;2.22;;;2.03;;
45077;SDS011;60508;42.622;25.416;2023-05-27T01:15:50;2.88;;;2.67;;
45077;SDS011;60508;42.622;25.416;2023-05-27T01:18:46;3.17;;;2.22;;
45077;SDS011;60508;42.622;25.416;2023-05-27T01:21:57;4.07;;;2.25;;
45077;SDS011;60508;42.622;25.416;2023-05-27T01:24:51;1.95;;;1.55;;
45077;SDS011;60508;42.622;25.416;2023-05-27T01:27:49;3.15;;;1.92;;
45077;SDS011;60508;42.622;25.416;2023-05-27T01:30:56;3.25;;;2.08;;
45077;SDS011;60508;42.622;25.416;2023-05-27T01:33:59;2.17;;;1.92;;
45077;SDS011;60508;42.622;25.416;2023-05-27T01:37:02;3.42;;;1.90;;
45077;SDS011;60508;42.622;25.416;2023-05-27T01:40:10;2.08;;;1.88;;
45077;SDS011;60508;42.622;25.416;2023-05-27T01:43:06;3.40;;;1.98;;
45077;SDS011;60508;42.622;25.416;2023-05-27T01:46:14;3.70;;;1.60;;
45077;SDS011;60508;42.622;25.416;2023-05-27T01:49:02;2.17;;;1.52;;
45077;SDS011;60508;42.622;25.416;2023-05-27T01:52:07;2.95;;;1.75;;
45077;SDS011;60508;42.622;25.416;2023-05-27T01:54:59;2.80;;;1.73;;
45077;SDS011;60508;42.622;25.416;2023-05-27T01:57:54;4.03;;;2.15;;
45077;SDS011;60508;42.622;25.416;2023-05-27T02:00:56;5.00;;;1.95;;
45077;SDS011;60508;42.622;25.416;2023-05-27T02:03:51;2.00;;;1.58;;
45077;SDS011;60508;42.622;25.416;2023-05-27T02:06:43;4.63;;;1.95;;
45077;SDS011;60508;42.622;25.416;2023-05-27T02:09:48;2.40;;;2.15;;
45077;SDS011;60508;42.622;25.416;2023-05-27T02:12:45;2.25;;;2.05;;
45077;SDS011;60508;42.622;25.416;2023-05-27T02:15:51;2.67;;;1.77;;
45077;SDS011;60508;42.622;25.416;2023-05-27T02:18:47;4.70;;;1.90;;
45077;SDS011;60508;42.622;25.416;2023-05-27T02:21:53;4.47;;;1.95;;
45077;SDS011;60508;42.622;25.416;2023-05-27T02:24:45;1.80;;;1.70;;
45077;SDS011;60508;42.622;25.416;2023-05-27T02:27:49;1.67;;;1.40;;
45077;SDS011;60508;42.622;25.416;2023-05-27T02:30:42;1.55;;;1.45;;
45077;SDS011;60508;42.622;25.416;2023-05-27T02:33:48;2.63;;;1.63;;
45077;SDS011;60508;42.622;25.416;2023-05-27T02:36:36;2.53;;;1.33;;
45077;SDS011;60508;42.622;25.416;2023-05-27T02:39:40;4.32;;;1.25;;
45077;SDS011;60508;42.622;25.416;2023-05-27T02:42:33;2.10;;;1.52;;
45077;SDS011;60508;42.622;25.416;2023-05-27T02:45:35;2.58;;;1.90;;
45077;SDS011;60508;42.622;25.416;2023-05-27T02:48:29;2.40;;;2.20;;
45077;SDS011;60508;42.622;25.416;2023-05-27T02:51:34;1.65;;;1.52;;
45077;SDS011;60508;42.622;25.416;2023-05-27T02:54:26;1.73;;;1.30;;
45077;SDS011;60508;42.622;25.416;2023-05-27T02:57:30;3.33;;;1.45;;
45077;SDS011;60508;42.622;25.416;2023-05-27T03:00:23;2.13;;;1.60;;
45077;SDS011;60508;42.622;25.416;2023-05-27T03:03:26;4.13;;;1.35;;
45077;SDS011;60508;42.622;25.416;2023-05-27T03:06:15;6.18;;;1.67;;
45077;SDS011;60508;42.622;25.416;2023-05-27T03:09:19;5.78;;;3.33;;
45077;SDS011;60508;42.622;25.416;2023-05-27T03:12:11;2.25;;;1.90;;
45077;SDS011;60508;42.622;25.416;2023-05-27T03:15:04;2.10;;;1.80;;
45077;SDS011;60508;42.622;25.416;2023-05-27T03:17:58;2.83;;;2.08;;
45077;SDS011;60508;42.622;25.416;2023-05-27T03:20:54;5.53;;;2.25;;
45077;SDS011;60508;42.622;25.416;2023-05-27T03:23:58;6.70;;;2.30;;
45077;SDS011;60508;42.622;25.416;2023-05-27T03:26:50;2.20;;;1.98;;
45077;SDS011;60508;42.622;25.416;2023-05-27T03:29:53;1.83;;;1.50;;
45077;SDS011;60508;42.622;25.416;2023-05-27T03:32:46;2.25;;;2.05;;
45077;SDS011;60508;42.622;25.416;2023-05-27T03:35:45;2.47;;;1.90;;
45077;SDS011;60508;42.622;25.416;2023-05-27T03:38:47;3.10;;;2.15;;
45077;SDS011;60508;42.622;25.416;2023-05-27T03:41:39;7.93;;;2.33;;
45077;SDS011;60508;42.622;25.416;2023-05-27T03:44:45;1.95;;;1.85;;
45077;SDS011;60508;42.622;25.416;2023-05-27T03:47:38;3.35;;;1.98;;
45077;SDS011;60508;42.622;25.416;2023-05-27T03:50:33;3.10;;;2.30;;
45077;SDS011;60508;42.622;25.416;2023-05-27T03:53:36;5.05;;;2.55;;
45077;SDS011;60508;42.622;25.416;2023-05-27T03:56:29;3.15;;;2.28;;
45077;SDS011;60508;42.622;25.416;2023-05-27T03:59:34;5.10;;;2.20;;
45077;SDS011;60508;42.622;25.416;2023-05-27T04:02:30;2.03;;;1.92;;
45077;SDS011;60508;42.622;25.416;2023-05-27T04:05:22;2.25;;;1.70;;
45077;SDS011;60508;42.622;25.416;2023-05-27T04:08:16;2.33;;;1.60;;
45077;SDS011;60508;42.622;25.416;2023-05-27T04:11:20;1.23;;;1.15;;
45077;SDS011;60508;42.622;25.416;2023-05-27T04:14:17;6.18;;;0.90;;
45077;SDS011;60508;42.622;25.416;2023-05-27T04:17:21;1.33;;;1.23;;
45077;SDS011;60508;42.622;25.416;2023-05-27T04:20:14;1.63;;;1.52;;
45077;SDS011;60508;42.622;25.416;2023-05-27T04:23:24;7.22;;;1.58;;
45077;SDS011;60508;42.622;25.416;2023-05-27T04:26:17;4.18;;;1.20;;
45077;SDS011;60508;42.622;25.416;2023-05-27T04:29:15;4.22;;;0.90;;
45077;SDS011;60508;42.622;25.416;2023-05-27T04:32:20;0.95;;;0.88;;
45077;SDS011;60508;42.622;25.416;2023-05-27T04:35:11;7.10;;;1.75;;
45077;SDS011;60508;42.622;25.416;2023-05-27T04:38:06;4.03;;;1.10;;
45077;SDS011;60508;42.622;25.416;2023-05-27T04:41:34;4.35;;;1.25;;
45077;SDS011;60508;42.622;25.416;2023-05-27T04:44:29;2.85;;;1.17;;
45077;SDS011;60508;42.622;25.416;2023-05-27T04:47:34;1.38;;;1.13;;
45077;SDS011;60508;42.622;25.416;2023-05-27T04:50:25;1.23;;;1.13;;
45077;SDS011;60508;42.622;25.416;2023-05-27T04:53:27;1.52;;;1.30;;
45077;SDS011;60508;42.622;25.416;2023-05-27T04:56:23;2.13;;;1.33;;
45077;SDS011;60508;42.622;25.416;2023-05-27T04:59:29;1.77;;;1.67;;
45077;SDS011;60508;42.622;25.416;2023-05-27T05:02:38;1.30;;;1.20;;
45077;SDS011;60508;42.622;25.416;2023-05-27T05:05:42;3.50;;;1.20;;
45077;SDS011;60508;42.622;25.416;2023-05-27T05:08:36;1.60;;;1.20;;
45077;SDS011;60508;42.622;25.416;2023-05-27T05:11:39;3.97;;;1.25;;
45077;SDS011;60508;42.622;25.416;2023-05-27T05:14:33;2.53;;;1.70;;
45077;SDS011;60508;42.622;25.416;2023-05-27T05:17:26;2.22;;;2.03;;
45077;SDS011;60508;42.622;25.416;2023-05-27T05:20:20;3.30;;;2.10;;
45077;SDS011;60508;42.622;25.416;2023-05-27T05:23:12;2.38;;;2.17;;
45077;SDS011;60508;42.622;25.416;2023-05-27T05:26:17;5.45;;;2.30;;
45077;SDS011;60508;42.622;25.416;2023-05-27T05:29:10;6.20;;;2.55;;
45077;SDS011;60508;42.622;25.416;2023-05-27T05:32:14;4.40;;;2.58;;
45077;SDS011;60508;42.622;25.416;2023-05-27T05:35:07;5.97;;;4.45;;
45077;SDS011;60508;42.622;25.416;2023-05-27T05:38:14;6.72;;;4.47;;
45077;SDS011;60508;42.622;25.416;2023-05-27T05:41:20;6.90;;;3.22;;
45077;SDS011;60508;42.622;25.416;2023-05-27T05:44:14;7.25;;;3.78;;
45077;SDS011;60508;42.622;25.416;2023-05-27T05:47:24;4.80;;;3.15;;
45077;SDS011;60508;42.622;25.416;2023-05-27T05:50:24;2.63;;;2.42;;
45077;SDS011;60508;42.622;25.416;2023-05-27T05:53:33;6.57;;;3.65;;
45077;SDS011;60508;42.622;25.416;2023-05-27T05:56:05;3.97;;;3.55;;
45077;SDS011;60508;42.622;25.416;2023-05-27T05:58:48;4.07;;;3.50;;
45077;SDS011;60508;42.622;25.416;2023-05-27T06:01:43;5.18;;;3.55;;
45077;SDS011;60508;42.622;25.416;2023-05-27T06:04:48;6.38;;;3.75;;
45077;SDS011;60508;42.622;25.416;2023-05-27T06:07:40;6.45;;;3.58;;
45077;SDS011;60508;42.622;25.416;2023-05-27T06:10:13;4.28;;;3.45;;
45077;SDS011;60508;42.622;25.416;2023-05-27T06:13:00;4.38;;;3.38;;
45077;SDS011;60508;42.622;25.416;2023-05-27T06:15:29;3.92;;;3.47;;
45077;SDS011;60508;42.622;25.416;2023-05-27T06:17:56;7.50;;;5.20;;
45077;SDS011;60508;42.622;25.416;2023-05-27T06:20:49;6.45;;;5.38;;
45077;SDS011;60508;42.622;25.416;2023-05-27T06:23:17;4.40;;;3.30;;
45077;SDS011;60508;42.622;25.416;2023-05-27T06:26:32;9.02;;;4.70;;
45077;SDS011;60508;42.622;25.416;2023-05-27T06:29:05;12.10;;;7.65;;
45077;SDS011;60508;42.622;25.416;2023-05-27T06:32:10;7.82;;;3.42;;
45077;SDS011;60508;42.622;25.416;2023-05-27T06:35:02;3.47;;;2.55;;
45077;SDS011;60508;42.622;25.416;2023-05-27T06:38:06;3.63;;;3.20;;
45077;SDS011;60508;42.622;25.416;2023-05-27T06:40:59;2.58;;;2.33;;
45077;SDS011;60508;42.622;25.416;2023-05-27T06:43:51;3.33;;;2.10;;
45077;SDS011;60508;42.622;25.416;2023-05-27T06:47:13;2.35;;;2.10;;
45077;SDS011;60508;42.622;25.416;2023-05-27T06:50:07;2.90;;;2.28;;
45077;SDS011;60508;42.622;25.416;2023-05-27T06:52:59;3.95;;;2.65;;
45077;SDS011;60508;42.622;25.416;2023-05-27T06:56:21;3.92;;;2.58;;
45077;SDS011;60508;42.622;25.416;2023-05-27T06:59:17;5.15;;;3.47;;
45077;SDS011;60508;42.622;25.416;2023-05-27T07:01:44;2.60;;;2.28;;
45077;SDS011;60508;42.622;25.416;2023-05-27T07:04:37;4.43;;;2.33;;
45077;SDS011;60508;42.622;25.416;2023-05-27T07:07:41;2.40;;;2.10;;
45077;SDS011;60508;42.622;25.416;2023-05-27T07:10:35;8.48;;;2.22;;
45077;SDS011;60508;42.622;25.416;2023-05-27T07:13:22;2.03;;;1.73;;
45077;SDS011;60508;42.622;25.416;2023-05-27T07:16:27;3.17;;;2.05;;
45077;SDS011;60508;42.622;25.416;2023-05-27T07:19:19;6.28;;;2.10;;
45077;SDS011;60508;42.622;25.416;2023-05-27T07:22:27;2.67;;;2.10;;
45077;SDS011;60508;42.622;25.416;2023-05-27T07:25:22;2.95;;;2.45;;
45077;SDS011;60508;42.622;25.416;2023-05-27T07:28:25;3.47;;;1.92;;
45077;SDS011;60508;42.622;25.416;2023-05-27T07:31:29;2.55;;;2.13;;
45077;SDS011;60508;42.622;25.416;2023-05-27T07:34:26;2.33;;;1.95;;
45077;SDS011;60508;42.622;25.416;2023-05-27T07:37:32;2.30;;;1.52;;
45077;SDS011;60508;42.622;25.416;2023-05-27T07:40:24;2.30;;;2.10;;
45077;SDS011;60508;42.622;25.416;2023-05-27T07:43:18;6.82;;;2.00;;
45077;SDS011;60508;42.622;25.416;2023-05-27T07:46:26;2.55;;;1.73;;
45077;SDS011;60508;42.622;25.416;2023-05-27T07:49:21;4.70;;;2.08;;
45077;SDS011;60508;42.622;25.416;2023-05-27T07:52:39;2.33;;;2.10;;
45077;SDS011;60508;42.622;25.416;2023-05-27T07:55:42;2.53;;;1.92;;
45077;SDS011;60508;42.622;25.416;2023-05-27T07:58:34;2.15;;;2.00;;
45077;SDS011;60508;42.622;25.416;2023-05-27T08:01:43;3.65;;;2.75;;
45077;SDS011;60508;42.622;25.416;2023-05-27T08:04:35;4.78;;;2.05;;
45077;SDS011;60508;42.622;25.416;2023-05-27T08:08:04;4.20;;;2.30;;
45077;SDS011;60508;42.622;25.416;2023-05-27T08:11:14;4.55;;;1.95;;
45077;SDS011;60508;42.622;25.416;2023-05-27T08:14:22;2.63;;;2.28;;
45077;SDS011;60508;42.622;25.416;2023-05-27T08:18:01;3.05;;;2.33;;
45077;SDS011;60508;42.622;25.416;2023-05-27T08:21:12;2.85;;;2.28;;
45077;SDS011;60508;42.622;25.416;2023-05-27T08:24:25;3.25;;;2.60;;
45077;SDS011;60508;42.622;25.416;2023-05-27T08:27:50;2.83;;;2.33;;
45077;SDS011;60508;42.622;25.416;2023-05-27T08:31:20;3.90;;;2.38;;
45077;SDS011;60508;42.622;25.416;2023-05-27T08:34:17;3.63;;;2.00;;
45077;SDS011;60508;42.622;25.416;2023-05-27T08:37:11;2.03;;;1.90;;
45077;SDS011;60508;42.622;25.416;2023-05-27T08:40:06;4.07;;;2.33;;
45077;SDS011;60508;42.622;25.416;2023-05-27T08:43:17;4.65;;;2.63;;
45077;SDS011;60508;42.622;25.416;2023-05-27T08:46:10;2.90;;;2.40;;
45077;SDS011;60508;42.622;25.416;2023-05-27T08:49:04;3.13;;;2.63;;
45077;SDS011;60508;42.622;25.416;2023-05-27T08:52:09;4.95;;;2.60;;
45077;SDS011;60508;42.622;25.416;2023-05-27T08:55:04;3.92;;;2.70;;
45077;SDS011;60508;42.622;25.416;2023-05-27T08:58:08;5.38;;;2.72;;
45077;SDS011;60508;42.622;25.416;2023-05-27T09:01:06;4.28;;;2.92;;
45077;SDS011;60508;42.622;25.416;2023-05-27T09:03:59;4.75;;;3.78;;
45077;SDS011;60508;42.622;25.416;2023-05-27T09:06:51;10.57;;;2.90;;
45077;SDS011;60508;42.622;25.416;2023-05-27T09:09:18;2.90;;;2.53;;
45077;SDS011;60508;42.622;25.416;2023-05-27T09:11:48;8.90;;;2.50;;
45077;SDS011;60508;42.622;25.416;2023-05-27T09:14:44;2.58;;;2.38;;
45077;SDS011;60508;42.622;25.416;2023-05-27T09:17:49;3.35;;;3.05;;
45077;SDS011;60508;42.622;25.416;2023-05-27T09:20:41;2.78;;;2.33;;
45077;SDS011;60508;42.622;25.416;2023-05-27T09:23:37;3.08;;;2.58;;
45077;SDS011;60508;42.622;25.416;2023-05-27T09:26:41;3.17;;;2.47;;
45077;SDS011;60508;42.622;25.416;2023-05-27T09:29:37;2.85;;;2.53;;
45077;SDS011;60508;42.622;25.416;2023-05-27T09:32:41;9.20;;;2.65;;
45077;SDS011;60508;42.622;25.416;2023-05-27T09:35:37;4.03;;;3.03;;
45077;SDS011;60508;42.622;25.416;2023-05-27T09:38:43;4.85;;;3.40;;
45077;SDS011;60508;42.622;25.416;2023-05-27T09:41:36;7.68;;;3.83;;
45077;SDS011;60508;42.622;25.416;2023-05-27T09:44:45;6.50;;;2.83;;
45077;SDS011;60508;42.622;25.416;2023-05-27T09:47:42;2.72;;;2.47;;
45077;SDS011;60508;42.622;25.416;2023-05-27T09:50:41;9.10;;;3.33;;
45077;SDS011;60508;42.622;25.416;2023-05-27T09:53:49;4.32;;;2.72;;
45077;SDS011;60508;42.622;25.416;2023-05-27T09:56:46;4.32;;;3.63;;
45077;SDS011;60508;42.622;25.416;2023-05-27T09:59:54;5.07;;;3.42;;
45077;SDS011;60508;42.622;25.416;2023-05-27T10:03:06;4.53;;;3.45;;
45077;SDS011;60508;42.622;25.416;2023-05-27T10:06:14;4.03;;;3.50;;
45077;SDS011;60508;42.622;25.416;2023-05-27T10:09:08;6.78;;;3.25;;
45077;SDS011;60508;42.622;25.416;2023-05-27T10:12:14;3.15;;;2.55;;
45077;SDS011;60508;42.622;25.416;2023-05-27T10:15:08;7.75;;;3.03;;
45077;SDS011;60508;42.622;25.416;2023-05-27T10:18:27;6.20;;;3.65;;
45077;SDS011;60508;42.622;25.416;2023-05-27T10:21:22;4.38;;;2.75;;
45077;SDS011;60508;42.622;25.416;2023-05-27T10:24:32;7.47;;;2.88;;
45077;SDS011;60508;42.622;25.416;2023-05-27T10:27:25;5.13;;;2.83;;
45077;SDS011;60508;42.622;25.416;2023-05-27T10:30:21;7.45;;;3.35;;
45077;SDS011;60508;42.622;25.416;2023-05-27T10:33:30;3.08;;;2.80;;
45077;SDS011;60508;42.622;25.416;2023-05-27T10:36:26;2.37;;;2.17;;
45077;SDS011;60508;42.622;25.416;2023-05-27T10:39:41;3.00;;;2.63;;
45077;SDS011;60508;42.622;25.416;2023-05-27T10:42:57;8.18;;;3.47;;
45077;SDS011;60508;42.622;25.416;2023-05-27T10:46:09;8.82;;;3.78;;
45077;SDS011;60508;42.622;25.416;2023-05-27T10:49:10;4.35;;;3.13;;
45077;SDS011;60508;42.622;25.416;2023-05-27T10:52:34;4.90;;;3.15;;
45077;SDS011;60508;42.622;25.416;2023-05-27T10:55:27;7.25;;;3.13;;
45077;SDS011;60508;42.622;25.416;2023-05-27T10:58:20;3.50;;;2.92;;
45077;SDS011;60508;42.622;25.416;2023-05-27T11:01:25;4.03;;;2.83;;
45077;SDS011;60508;42.622;25.416;2023-05-27T11:04:21;4.35;;;3.38;;
45077;SDS011;60508;42.622;25.416;2023-05-27T11:07:18;5.13;;;3.17;;
45077;SDS011;60508;42.622;25.416;2023-05-27T11:10:25;3.42;;;3.13;;
45077;SDS011;60508;42.622;25.416;2023-05-27T11:13:16;13.90;;;3.25;;
45077;SDS011;60508;42.622;25.416;2023-05-27T11:16:09;7.25;;;3.10;;
45077;SDS011;60508;42.622;25.416;2023-05-27T11:19:14;3.53;;;2.85;;
45077;SDS011;60508;42.622;25.416;2023-05-27T11:22:07;2.75;;;2.55;;
45077;SDS011;60508;42.622;25.416;2023-05-27T11:25:10;3.22;;;2.63;;
45077;SDS011;60508;42.622;25.416;2023-05-27T11:28:02;4.95;;;3.10;;
45077;SDS011;60508;42.622;25.416;2023-05-27T11:31:04;3.92;;;3.40;;
45077;SDS011;60508;42.622;25.416;2023-05-27T11:34:15;11.93;;;4.43;;
45077;SDS011;60508;42.622;25.416;2023-05-27T11:37:07;4.28;;;3.78;;
45077;SDS011;60508;42.622;25.416;2023-05-27T11:39:35;12.45;;;4.22;;
45077;SDS011;60508;42.622;25.416;2023-05-27T11:42:27;7.03;;;3.47;;
45077;SDS011;60508;42.622;25.416;2023-05-27T11:45:36;7.07;;;3.53;;
45077;SDS011;60508;42.622;25.416;2023-05-27T11:48:30;4.35;;;3.35;;
45077;SDS011;60508;42.622;25.416;2023-05-27T11:51:28;6.25;;;3.83;;
45077;SDS011;60508;42.622;25.416;2023-05-27T11:54:30;4.35;;;3.65;;
45077;SDS011;60508;42.622;25.416;2023-05-27T11:57:05;10.00;;;3.33;;
45077;SDS011;60508;42.622;25.416;2023-05-27T11:59:42;3.38;;;3.08;;
45077;SDS011;60508;42.622;25.416;2023-05-27T12:02:34;4.05;;;3.05;;
45077;SDS011;60508;42.622;25.416;2023-05-27T12:05:39;4.68;;;3.38;;
45077;SDS011;60508;42.622;25.416;2023-05-27T12:08:32;4.85;;;3.45;;
45077;SDS011;60508;42.622;25.416;2023-05-27T12:11:36;4.38;;;2.90;;
45077;SDS011;60508;42.622;25.416;2023-05-27T12:14:28;4.10;;;3.33;;
45077;SDS011;60508;42.622;25.416;2023-05-27T12:17:34;3.53;;;3.25;;
45077;SDS011;60508;42.622;25.416;2023-05-27T12:20:26;4.85;;;3.00;;
45077;SDS011;60508;42.622;25.416;2023-05-27T12:23:19;3.67;;;2.85;;
45077;SDS011;60508;42.622;25.416;2023-05-27T12:26:12;4.15;;;3.05;;
45077;SDS011;60508;42.622;25.416;2023-05-27T12:29:16;6.28;;;3.25;;
45077;SDS011;60508;42.622;25.416;2023-05-27T12:32:10;4.90;;;3.00;;
45077;SDS011;60508;42.622;25.416;2023-05-27T12:35:14;4.15;;;2.95;;
45077;SDS011;60508;42.622;25.416;2023-05-27T12:38:06;4.28;;;3.88;;
45077;SDS011;60508;42.622;25.416;2023-05-27T12:40:41;8.68;;;4.18;;
45077;SDS011;60508;42.622;25.416;2023-05-27T12:43:08;5.30;;;3.28;;
45077;SDS011;60508;42.622;25.416;2023-05-27T12:45:38;10.18;;;3.42;;
45077;SDS011;60508;42.622;25.416;2023-05-27T12:48:17;6.93;;;3.38;;
45077;SDS011;60508;42.622;25.416;2023-05-27T12:53:37;13.02;;;4.57;;
45077;SDS011;60508;42.622;25.416;2023-05-27T12:56:04;3.47;;;3.03;;
45077;SDS011;60508;42.622;25.416;2023-05-27T12:58:30;6.38;;;3.97;;
45077;SDS011;60508;42.622;25.416;2023-05-27T13:01:06;7.93;;;3.65;;
45077;SDS011;60508;42.622;25.416;2023-05-27T13:03:59;3.70;;;3.22;;
45077;SDS011;60508;42.622;25.416;2023-05-27T13:06:56;6.72;;;3.53;;
45077;SDS011;60508;42.622;25.416;2023-05-27T13:09:50;6.63;;;3.13;;
45077;SDS011;60508;42.622;25.416;2023-05-27T13:12:54;3.30;;;3.00;;
45077;SDS011;60508;42.622;25.416;2023-05-27T13:15:50;5.28;;;3.85;;
45077;SDS011;60508;42.622;25.416;2023-05-27T13:18:26;6.10;;;4.25;;
45077;SDS011;60508;42.622;25.416;2023-05-27T13:20:55;8.23;;;2.97;;
45077;SDS011;60508;42.622;25.416;2023-05-27T13:23:22;5.38;;;3.33;;
45077;SDS011;60508;42.622;25.416;2023-05-27T13:25:48;4.03;;;3.45;;
45077;SDS011;60508;42.622;25.416;2023-05-27T13:28:34;9.55;;;3.75;;
45077;SDS011;60508;42.622;25.416;2023-05-27T13:31:29;6.32;;;3.92;;
45077;SDS011;60508;42.622;25.416;2023-05-27T13:34:33;3.88;;;3.25;;
45077;SDS011;60508;42.622;25.416;2023-05-27T13:37:25;10.43;;;4.70;;
45077;SDS011;60508;42.622;25.416;2023-05-27T13:40:17;5.85;;;4.05;;
45077;SDS011;60508;42.622;25.416;2023-05-27T13:43:21;7.07;;;3.22;;
45077;SDS011;60508;42.622;25.416;2023-05-27T13:46:13;4.28;;;3.88;;
45077;SDS011;60508;42.622;25.416;2023-05-27T13:49:20;4.63;;;3.33;;
45077;SDS011;60508;42.622;25.416;2023-05-27T13:52:16;9.20;;;4.10;;
45077;SDS011;60508;42.622;25.416;2023-05-27T13:55:16;4.25;;;3.53;;
45077;SDS011;60508;42.622;25.416;2023-05-27T13:58:15;6.97;;;3.75;;
45077;SDS011;60508;42.622;25.416;2023-05-27T14:01:18;7.63;;;3.47;;
45077;SDS011;60508;42.622;25.416;2023-05-27T14:04:10;4.57;;;3.63;;
45077;SDS011;60508;42.622;25.416;2023-05-27T14:07:15;4.43;;;3.20;;
45077;SDS011;60508;42.622;25.416;2023-05-27T14:10:07;8.18;;;3.53;;
45077;SDS011;60508;42.622;25.416;2023-05-27T14:13:12;8.95;;;3.88;;
45077;SDS011;60508;42.622;25.416;2023-05-27T14:16:05;3.60;;;3.30;;
45077;SDS011;60508;42.622;25.416;2023-05-27T14:19:07;11.73;;;4.53;;
45077;SDS011;60508;42.622;25.416;2023-05-27T14:22:00;5.45;;;3.55;;
45077;SDS011;60508;42.622;25.416;2023-05-27T14:24:53;8.15;;;3.97;;
45077;SDS011;60508;42.622;25.416;2023-05-27T14:27:57;5.80;;;3.63;;
45077;SDS011;60508;42.622;25.416;2023-05-27T14:30:52;12.43;;;3.58;;
45077;SDS011;60508;42.622;25.416;2023-05-27T14:33:44;5.90;;;3.80;;
45077;SDS011;60508;42.622;25.416;2023-05-27T14:36:37;8.27;;;4.15;;
45077;SDS011;60508;42.622;25.416;2023-05-27T14:39:29;3.97;;;3.60;;
45077;SDS011;60508;42.622;25.416;2023-05-27T14:42:34;3.85;;;2.70;;
45077;SDS011;60508;42.622;25.416;2023-05-27T14:45:26;3.13;;;2.92;;
45077;SDS011;60508;42.622;25.416;2023-05-27T14:48:21;4.65;;;3.20;;
45077;SDS011;60508;42.622;25.416;2023-05-27T14:51:26;4.35;;;3.25;;
45077;SDS011;60508;42.622;25.416;2023-05-27T14:54:17;9.05;;;4.72;;
45077;SDS011;60508;42.622;25.416;2023-05-27T14:57:09;7.18;;;5.38;;
45077;SDS011;60508;42.622;25.416;2023-05-27T15:00:04;9.35;;;4.03;;
45077;SDS011;60508;42.622;25.416;2023-05-27T15:03:09;5.03;;;3.25;;
45077;SDS011;60508;42.622;25.416;2023-05-27T15:06:01;7.38;;;3.28;;
45077;SDS011;60508;42.622;25.416;2023-05-27T15:08:57;4.30;;;3.17;;
45077;SDS011;60508;42.622;25.416;2023-05-27T15:11:50;3.53;;;3.22;;
45077;SDS011;60508;42.622;25.416;2023-05-27T15:14:55;5.47;;;3.92;;
45077;SDS011;60508;42.622;25.416;2023-05-27T15:17:49;5.28;;;3.63;;
45077;SDS011;60508;42.622;25.416;2023-05-27T15:20:41;4.90;;;3.58;;
45077;SDS011;60508;42.622;25.416;2023-05-27T15:23:45;4.70;;;3.95;;
45077;SDS011;60508;42.622;25.416;2023-05-27T15:26:37;3.63;;;3.33;;
45077;SDS011;60508;42.622;25.416;2023-05-27T15:29:42;9.07;;;3.80;;
45077;SDS011;60508;42.622;25.416;2023-05-27T15:32:33;4.00;;;3.60;;
45077;SDS011;60508;42.622;25.416;2023-05-27T15:35:28;4.22;;;3.03;;
45077;SDS011;60508;42.622;25.416;2023-05-27T15:38:31;9.90;;;3.97;;
45077;SDS011;60508;42.622;25.416;2023-05-27T15:41:23;9.98;;;4.78;;
45077;SDS011;60508;42.622;25.416;2023-05-27T15:44:28;3.90;;;3.60;;
45077;SDS011;60508;42.622;25.416;2023-05-27T15:47:21;3.97;;;3.60;;
45077;SDS011;60508;42.622;25.416;2023-05-27T15:50:25;9.55;;;3.90;;
45077;SDS011;60508;42.622;25.416;2023-05-27T15:53:18;5.90;;;4.05;;
45077;SDS011;60508;42.622;25.416;2023-05-27T15:56:24;3.85;;;3.55;;
45077;SDS011;60508;42.622;25.416;2023-05-27T15:59:17;6.15;;;3.60;;
45077;SDS011;60508;42.622;25.416;2023-05-27T16:02:09;5.55;;;3.65;;
45077;SDS011;60508;42.622;25.416;2023-05-27T16:05:13;7.72;;;3.63;;
45077;SDS011;60508;42.622;25.416;2023-05-27T16:08:04;4.68;;;3.88;;
45077;SDS011;60508;42.622;25.416;2023-05-27T16:11:09;7.93;;;4.20;;
45077;SDS011;60508;42.622;25.416;2023-05-27T16:14:01;6.20;;;3.97;;
45077;SDS011;60508;42.622;25.416;2023-05-27T16:16:53;5.50;;;4.38;;
45077;SDS011;60508;42.622;25.416;2023-05-27T16:19:55;5.53;;;4.15;;
45077;SDS011;60508;42.622;25.416;2023-05-27T16:22:49;7.15;;;4.47;;
45077;SDS011;60508;42.622;25.416;2023-05-27T16:25:55;6.80;;;3.97;;
45077;SDS011;60508;42.622;25.416;2023-05-27T16:28:47;4.72;;;4.15;;
45077;SDS011;60508;42.622;25.416;2023-05-27T16:31:54;11.65;;;4.18;;
45077;SDS011;60508;42.622;25.416;2023-05-27T16:34:45;8.38;;;4.03;;
45077;SDS011;60508;42.622;25.416;2023-05-27T16:37:51;8.25;;;5.32;;
45077;SDS011;60508;42.622;25.416;2023-05-27T16:40:49;21.70;;;8.82;;
45077;SDS011;60508;42.622;25.416;2023-05-27T16:43:54;43.65;;;18.58;;
45077;SDS011;60508;42.622;25.416;2023-05-27T16:46:46;6.20;;;5.07;;
45077;SDS011;60508;42.622;25.416;2023-05-27T16:49:51;11.80;;;7.63;;
45077;SDS011;60508;42.622;25.416;2023-05-27T16:52:43;15.57;;;6.97;;
45077;SDS011;60508;42.622;25.416;2023-05-27T16:55:48;4.38;;;2.55;;
45077;SDS011;60508;42.622;25.416;2023-05-27T16:58:39;5.43;;;2.58;;
45077;SDS011;60508;42.622;25.416;2023-05-27T17:01:43;3.60;;;2.22;;
45077;SDS011;60508;42.622;25.416;2023-05-27T17:04:37;3.47;;;2.90;;
45077;SDS011;60508;42.622;25.416;2023-05-27T17:07:43;2.38;;;1.90;;
45077;SDS011;60508;42.622;25.416;2023-05-27T17:10:35;2.85;;;1.60;;
45077;SDS011;60508;42.622;25.416;2023-05-27T17:13:38;7.70;;;4.05;;
45077;SDS011;60508;42.622;25.416;2023-05-27T17:16:31;3.78;;;3.03;;
45077;SDS011;60508;42.622;25.416;2023-05-27T17:22:42;3.22;;;2.47;;
45077;SDS011;60508;42.622;25.416;2023-05-27T17:25:47;8.02;;;2.67;;
45077;SDS011;60508;42.622;25.416;2023-05-27T17:28:41;5.32;;;1.85;;
45077;SDS011;60508;42.622;25.416;2023-05-27T17:31:34;5.10;;;3.42;;
45077;SDS011;60508;42.622;25.416;2023-05-27T17:34:40;3.63;;;3.22;;
45077;SDS011;60508;42.622;25.416;2023-05-27T17:37:32;5.10;;;3.17;;
45077;SDS011;60508;42.622;25.416;2023-05-27T17:40:38;2.30;;;1.90;;
45077;SDS011;60508;42.622;25.416;2023-05-27T17:43:31;3.60;;;2.38;;